Time;durP1;ratioP1;P1;durP2;ratioP2;P2;SDS_P1;SDS_P2;PMS_P1;PMS_P2;Temp;Humidity;BMP_temperature;BMP_pressure;BME280_temperature;BME280_humidity;BME280_pressure;Samples;Min_cycle;Max_cycle;Signal;HPM_P1;HPM_P2
2023/09/12 00:02:21;;;;;;;;;;;120.61;114.10;;;;;;2672320;76;20330;-91
2023/09/12 00:05:50;;;;;;;;;;;120.61;114.10;;;;;;2672426;76;20482;-91
2023/09/12 00:09:18;;;;;;;;;;;120.61;114.10;;;;;;2672299;76;20360;-91
2023/09/12 00:12:50;;;;;;;;;;;120.61;114.10;;;;;;2672193;76;20430;-91
2023/09/12 00:16:21;;;;;;;;;;;120.61;114.10;;;;;;2672503;76;20400;-90
2023/09/12 00:19:49;;;;;;;;;;;120.61;114.10;;;;;;2672814;76;20454;-90
2023/09/12 00:23:17;;;;;;;;;;;120.61;114.10;;;;;;2673020;76;21210;-91
2023/09/12 00:26:45;;;;;;;;;;;120.61;114.10;;;;;;2672034;76;20433;-90
2023/09/12 00:30:13;;;;;;;;;;;120.61;114.10;;;;;;2672364;76;20452;-91
2023/09/12 00:33:41;;;;;;;;;;;120.61;114.10;;;;;;2673234;76;20464;-90
2023/09/12 00:37:10;;;;;;;;;;;120.61;114.10;;;;;;2672569;76;20476;-90
2023/09/12 00:40:38;;;;;;;;;;;120.61;114.10;;;;;;2672970;76;20458;-90
2023/09/12 00:44:06;;;;;;;;;;;120.61;114.10;;;;;;2672745;76;20431;-92
2023/09/12 00:47:35;;;;;;;;;;;120.61;114.10;;;;;;2672666;76;20830;-91
2023/09/12 00:51:04;;;;;;;;;;;120.61;114.10;;;;;;2672388;76;20302;-91
2023/09/12 00:54:32;;;;;;;;;;;120.61;114.10;;;;;;2672391;76;20439;-90
2023/09/12 00:58:00;;;;;;;;;;;120.61;114.10;;;;;;2672444;76;20448;-90
2023/09/12 01:01:28;;;;;;;;;;;120.61;114.10;;;;;;2672568;76;20458;-90
2023/09/12 01:04:59;;;;;;;;;;;120.61;114.10;;;;;;2672716;76;20325;-90
2023/09/12 01:08:27;;;;;;;;;;;120.61;114.10;;;;;;2672379;76;20364;-91
2023/09/12 01:11:55;;;;;;;;;;;120.61;114.10;;;;;;2673341;76;20447;-90
2023/09/12 01:15:23;;;;;;;;;;;120.61;114.10;;;;;;2673006;76;20949;-90
2023/09/12 01:18:55;;;;;;;;;;;120.61;114.10;;;;;;2673452;76;20484;-90
2023/09/12 01:22:23;;;;;;;;;;;120.61;114.10;;;;;;2672445;76;20439;-90
2023/09/12 01:25:51;;;;;;;;;;;120.61;114.10;;;;;;2673324;76;20908;-89
2023/09/12 01:29:19;;;;;;;;;;;120.61;114.10;;;;;;2672086;76;20463;-89
2023/09/12 01:32:48;;;;;;;;;;;120.61;114.10;;;;;;2671614;76;20456;-89
2023/09/12 01:36:16;;;;;;;;;;;120.61;114.10;;;;;;2671637;76;20856;-90
2023/09/12 01:39:44;;;;;;;;;;;120.61;114.10;;;;;;2672173;76;20475;-90
2023/09/12 01:43:17;;;;;;;;;;;120.61;114.10;;;;;;2671740;76;20409;-90
2023/09/12 01:46:42;;;;;;;;;;;120.61;114.10;;;;;;2673566;76;20407;-88
2023/09/12 01:50:12;;;;;;;;;;;120.61;114.10;;;;;;2673020;76;20347;-88
2023/09/12 01:53:40;;;;;;;;;;;120.61;114.10;;;;;;2672967;76;20323;-89
2023/09/12 01:57:11;;;;;;;;;;;120.61;114.10;;;;;;2673312;76;21008;-90
2023/09/12 02:00:39;;;;;;;;;;;120.61;114.10;;;;;;2673343;76;20485;-90
2023/09/12 02:04:08;;;;;;;;;;;120.61;114.10;;;;;;2672613;76;20427;-89
2023/09/12 02:07:36;;;;;;;;;;;120.61;114.10;;;;;;2672718;76;20798;-90
2023/09/12 02:11:05;;;;;;;;;;;120.61;114.10;;;;;;2673300;76;20339;-89
2023/09/12 02:14:33;;;;;;;;;;;120.61;114.10;;;;;;2673572;76;20308;-89
2023/09/12 02:18:01;;;;;;;;;;;120.61;114.10;;;;;;2672317;76;20474;-89
2023/09/12 02:21:29;;;;;;;;;;;120.61;114.10;;;;;;2672360;76;20929;-90
2023/09/12 02:24:57;;;;;;;;;;;120.61;114.10;;;;;;2672211;76;20407;-89
2023/09/12 02:28:25;;;;;;;;;;;120.61;114.10;;;;;;2673597;76;20420;-91
2023/09/12 02:31:54;;;;;;;;;;;120.61;114.10;;;;;;2672635;76;20742;-91
2023/09/12 02:35:22;;;;;;;;;;;120.61;114.10;;;;;;2672546;76;20460;-91
2023/09/12 02:38:50;;;;;;;;;;;120.61;114.10;;;;;;2672486;76;20311;-90
2023/09/12 02:42:18;;;;;;;;;;;120.61;114.10;;;;;;2673095;76;20314;-91
2023/09/12 02:45:46;;;;;;;;;;;120.61;114.10;;;;;;2672877;76;20905;-91
2023/09/12 02:49:14;;;;;;;;;;;120.61;114.10;;;;;;2673395;76;20405;-89
2023/09/12 02:52:42;;;;;;;;;;;120.61;114.10;;;;;;2672950;76;20325;-90
2023/09/12 02:56:10;;;;;;;;;;;120.61;114.10;;;;;;2673259;76;20619;-91
2023/09/12 02:59:39;;;;;;;;;;;120.61;114.10;;;;;;2673138;76;20476;-89
2023/09/12 03:03:08;;;;;;;;;;;120.61;114.10;;;;;;2672346;76;20464;-89
2023/09/12 03:06:37;;;;;;;;;;;120.61;114.10;;;;;;2672634;76;20425;-90
2023/09/12 03:10:05;;;;;;;;;;;120.61;114.10;;;;;;2672743;76;20420;-90
2023/09/12 03:13:33;;;;;;;;;;;120.61;114.10;;;;;;2673033;76;20333;-90
2023/09/12 03:17:01;;;;;;;;;;;120.61;114.10;;;;;;2673143;76;20426;-91
2023/09/12 03:20:29;;;;;;;;;;;120.61;114.10;;;;;;2672990;76;20712;-91
2023/09/12 03:23:58;;;;;;;;;;;120.61;114.10;;;;;;2672744;76;20325;-91
2023/09/12 03:27:26;;;;;;;;;;;120.61;114.10;;;;;;2672683;76;20305;-91
2023/09/12 03:30:54;;;;;;;;;;;120.61;114.10;;;;;;2672161;76;20335;-91
2023/09/12 03:34:22;;;;;;;;;;;120.61;114.10;;;;;;2672757;76;20354;-91
2023/09/12 03:37:50;;;;;;;;;;;120.61;114.10;;;;;;2671901;76;20424;-90
2023/09/12 03:41:18;;;;;;;;;;;120.61;114.10;;;;;;2672865;76;20412;-91
2023/09/12 03:44:46;;;;;;;;;;;120.61;114.10;;;;;;2673632;76;20298;-91
2023/09/12 03:48:15;;;;;;;;;;;120.61;114.10;;;;;;2672444;76;20758;-91
2023/09/12 03:51:43;;;;;;;;;;;120.61;114.10;;;;;;2672556;76;20359;-91
2023/09/12 03:55:11;;;;;;;;;;;120.61;114.10;;;;;;2672504;76;20435;-91
2023/09/12 03:58:39;;;;;;;;;;;120.61;114.10;;;;;;2673234;76;20422;-90
2023/09/12 04:02:08;;;;;;;;;;;120.61;114.10;;;;;;2672715;76;20958;-91
2023/09/12 04:05:36;;;;;;;;;;;120.61;114.10;;;;;;2673067;76;20743;-91
2023/09/12 04:09:04;;;;;;;;;;;120.61;114.10;;;;;;2672823;76;20473;-91
2023/09/12 04:12:32;;;;;;;;;;;120.61;114.10;;;;;;2673152;76;20430;-92
2023/09/12 04:16:15;;;;;;;;;;;120.61;114.10;;;;;;2672977;76;20520;-91
2023/09/12 04:19:30;;;;;;;;;;;120.61;114.10;;;;;;2672720;76;20485;-91
2023/09/12 04:22:58;;;;;;;;;;;120.61;114.10;;;;;;2671945;76;21199;-91
2023/09/12 04:26:26;;;;;;;;;;;120.61;114.10;;;;;;2672976;76;20453;-91
2023/09/12 04:29:55;;;;;;;;;;;120.61;114.10;;;;;;2672470;76;20431;-91
2023/09/12 04:33:23;;;;;;;;;;;120.61;114.10;;;;;;2672764;76;20366;-87
2023/09/12 04:36:51;;;;;;;;;;;120.61;114.10;;;;;;2671520;76;20427;-87
2023/09/12 04:40:22;;;;;;;;;;;120.61;114.10;;;;;;2670594;76;20484;-88
2023/09/12 04:43:51;;;;;;;;;;;120.61;114.10;;;;;;2672913;76;20313;-90
2023/09/12 04:47:19;;;;;;;;;;;120.61;114.10;;;;;;2671935;76;20429;-88
2023/09/12 04:50:48;;;;;;;;;;;120.61;114.10;;;;;;2671927;76;20512;-90
2023/09/12 04:54:16;;;;;;;;;;;120.61;114.10;;;;;;2666626;76;20456;-90
2023/09/12 04:57:44;;;;;;;;;;;120.61;114.10;;;;;;2668137;76;20415;-89
2023/09/12 05:01:12;;;;;;;;;;;120.61;114.10;;;;;;2668756;76;20447;-90
2023/09/12 05:04:41;;;;;;;;;;;120.61;114.10;;;;;;2668479;76;20461;-89
2023/09/12 05:08:09;;;;;;;;;;;120.61;114.10;;;;;;2668430;76;20451;-88
2023/09/12 05:11:37;;;;;;;;;;;120.61;114.10;;;;;;2668645;76;20447;-89
2023/09/12 05:15:05;;;;;;;;;;;120.61;114.10;;;;;;2668110;76;20491;-89
2023/09/12 05:18:33;;;;;;;;;;;120.61;114.10;;;;;;2668956;76;20414;-87
2023/09/12 05:22:09;;;;;;;;;;;120.61;114.10;;;;;;2668428;76;20480;-88
2023/09/12 05:25:32;;;;;;;;;;;120.61;114.10;;;;;;2668992;76;20459;-88
2023/09/12 05:29:00;;;;;;;;;;;120.61;114.10;;;;;;2669535;76;20472;-88
2023/09/12 05:32:28;;;;;;;;;;;120.61;114.10;;;;;;2668526;76;20446;-88
2023/09/12 05:35:56;;;;;;;;;;;120.61;114.10;;;;;;2669168;76;20464;-88
2023/09/12 05:39:24;;;;;;;;;;;120.61;114.10;;;;;;2669152;76;20456;-87
2023/09/12 05:42:53;;;;;;;;;;;120.61;114.10;;;;;;2669178;76;20474;-89
2023/09/12 05:46:21;;;;;;;;;;;120.61;114.10;;;;;;2670193;76;20415;-88
2023/09/12 05:49:49;;;;;;;;;;;120.61;114.10;;;;;;2670822;76;20423;-88
2023/09/12 05:53:17;;;;;;;;;;;120.61;114.10;;;;;;2669301;76;20503;-88
2023/09/12 05:56:47;;;;;;;;;;;120.61;114.10;;;;;;2669856;76;20410;-88
2023/09/12 06:00:15;;;;;;;;;;;120.61;114.10;;;;;;2669717;76;20919;-89
2023/09/12 06:03:43;;;;;;;;;;;120.61;114.10;;;;;;2669662;76;20492;-88
2023/09/12 06:07:12;;;;;;;;;;;120.61;114.10;;;;;;2669987;76;20518;-88
2023/09/12 06:10:40;;;;;;;;;;;120.61;114.10;;;;;;2669867;76;20473;-87
2023/09/12 06:14:08;;;;;;;;;;;120.61;114.10;;;;;;2668840;76;21014;-88
2023/09/12 06:17:37;;;;;;;;;;;120.61;114.10;;;;;;2669790;76;20347;-88
2023/09/12 06:21:08;;;;;;;;;;;120.61;114.10;;;;;;2670261;76;20405;-89
2023/09/12 06:24:34;;;;;;;;;;;120.61;114.10;;;;;;2667960;76;20448;-88
2023/09/12 06:28:03;;;;;;;;;;;120.61;114.10;;;;;;2667799;76;20428;-88
2023/09/12 06:31:31;;;;;;;;;;;120.61;114.10;;;;;;2668752;76;20358;-89
2023/09/12 06:34:59;;;;;;;;;;;120.61;114.10;;;;;;2668410;76;20295;-89
2023/09/12 06:38:27;;;;;;;;;;;120.61;114.10;;;;;;2666978;76;20367;-88
2023/09/12 06:41:55;;;;;;;;;;;120.61;114.10;;;;;;2669408;76;20424;-89
2023/09/12 06:45:24;;;;;;;;;;;120.61;114.10;;;;;;2669479;76;20483;-88
2023/09/12 06:48:52;;;;;;;;;;;120.61;114.10;;;;;;2669536;76;20444;-89
2023/09/12 06:52:21;;;;;;;;;;;120.61;114.10;;;;;;2669553;76;20417;-89
2023/09/12 06:55:49;;;;;;;;;;;120.61;114.10;;;;;;2670197;76;20470;-89
2023/09/12 06:59:17;;;;;;;;;;;120.61;114.10;;;;;;2669438;76;20442;-89
2023/09/12 07:02:45;;;;;;;;;;;120.61;114.10;;;;;;2669974;76;20313;-89
2023/09/12 07:06:13;;;;;;;;;;;120.61;114.10;;;;;;2669407;76;20969;-89
2023/09/12 07:09:41;;;;;;;;;;;120.61;114.10;;;;;;2670225;76;20474;-89
2023/09/12 07:13:10;;;;;;;;;;;120.61;114.10;;;;;;2669762;76;20576;-89
2023/09/12 07:16:38;;;;;;;;;;;120.61;114.10;;;;;;2670204;76;20420;-88
2023/09/12 07:20:11;;;;;;;;;;;120.61;114.10;;;;;;2669975;76;20890;-89
2023/09/12 07:23:38;;;;;;;;;;;120.61;114.10;;;;;;2669753;76;20408;-89
2023/09/12 07:27:06;;;;;;;;;;;120.61;114.10;;;;;;2669502;76;20467;-89
2023/09/12 07:30:34;;;;;;;;;;;120.61;114.10;;;;;;2669304;76;20458;-88
2023/09/12 07:34:02;;;;;;;;;;;120.61;114.10;;;;;;2669914;76;20919;-89
2023/09/12 07:37:33;;;;;;;;;;;120.61;114.10;;;;;;2668960;76;21037;-88
2023/09/12 07:41:02;;;;;;;;;;;120.61;114.10;;;;;;2668367;76;20911;-89
2023/09/12 07:44:31;;;;;;;;;;;120.61;114.10;;;;;;2669762;76;20427;-89
2023/09/12 07:47:59;;;;;;;;;;;120.61;114.10;;;;;;2669332;76;20424;-88
2023/09/12 07:51:32;;;;;;;;;;;120.61;114.10;;;;;;2668493;76;20790;-89
2023/09/12 07:54:57;;;;;;;;;;;120.61;114.10;;;;;;2667951;76;20410;-88
2023/09/12 07:58:25;;;;;;;;;;;120.61;114.10;;;;;;2669268;76;20779;-89
2023/09/12 08:01:53;;;;;;;;;;;120.61;114.10;;;;;;2669133;76;20455;-89
2023/09/12 08:05:21;;;;;;;;;;;120.61;114.10;;;;;;2669186;76;20448;-89
2023/09/12 08:08:50;;;;;;;;;;;120.61;114.10;;;;;;2668996;76;20420;-89
2023/09/12 08:12:18;;;;;;;;;;;120.61;114.10;;;;;;2669084;76;20447;-89
2023/09/12 08:15:47;;;;;;;;;;;120.61;114.10;;;;;;2668640;76;20315;-88
2023/09/12 08:19:15;;;;;;;;;;;120.61;114.10;;;;;;2668581;76;20309;-90
2023/09/12 08:22:48;;;;;;;;;;;120.61;114.10;;;;;;2667945;76;20962;-88
2023/09/12 08:26:21;;;;;;;;;;;120.61;114.10;;;;;;2668824;76;20341;-90
2023/09/12 08:29:53;;;;;;;;;;;120.61;114.10;;;;;;2668891;76;20481;-90
2023/09/12 08:33:26;;;;;;;;;;;120.61;114.10;;;;;;2668262;76;20490;-90
2023/09/12 08:37:00;;;;;;;;;;;120.61;114.10;;;;;;2667964;76;20541;-88
2023/09/12 08:40:30;;;;;;;;;;;120.61;114.10;;;;;;2667468;76;20456;-89
2023/09/12 08:44:01;;;;;;;;;;;120.61;114.10;;;;;;2667235;76;20469;-89
2023/09/12 08:47:34;;;;;;;;;;;120.61;114.10;;;;;;2667277;76;20479;-90
2023/09/12 08:50:59;;;;;;;;;;;120.61;114.10;;;;;;2667543;76;20418;-88
2023/09/12 08:54:33;;;;;;;;;;;120.61;114.10;;;;;;2668012;76;20425;-87
2023/09/12 08:57:58;;;;;;;;;;;120.61;114.10;;;;;;2667339;76;20462;-88
2023/09/12 09:01:32;;;;;;;;;;;120.61;114.10;;;;;;2668526;76;20339;-88
2023/09/12 09:05:00;;;;;;;;;;;120.61;114.10;;;;;;2667382;76;20479;-86
2023/09/12 09:08:45;;;;;;;;;;;120.61;114.10;;;;;;2667290;76;21139;-90
2023/09/12 09:12:10;;;;;;;;;;;120.61;114.10;;;;;;2667928;76;20452;-90
2023/09/12 09:15:44;;;;;;;;;;;120.61;114.10;;;;;;2668689;76;20874;-88
2023/09/12 09:19:15;;;;;;;;;;;120.61;114.10;;;;;;2668154;76;20783;-88
2023/09/12 09:22:46;;;;;;;;;;;120.61;114.10;;;;;;2667593;76;20429;-90
2023/09/12 09:26:14;;;;;;;;;;;120.61;114.10;;;;;;2666982;76;20463;-89
2023/09/12 09:29:43;;;;;;;;;;;120.61;114.10;;;;;;2667299;76;20455;-89
2023/09/12 09:33:11;;;;;;;;;;;120.61;114.10;;;;;;2667846;76;20454;-89
2023/09/12 09:36:39;;;;;;;;;;;120.61;114.10;;;;;;2667090;76;20420;-89
2023/09/12 09:40:13;;;;;;;;;;;120.61;114.10;;;;;;2667797;76;20437;-89
2023/09/12 09:43:37;;;;;;;;;;;120.61;114.10;;;;;;2668151;76;20504;-89
2023/09/12 09:47:06;;;;;;;;;;;120.61;114.10;;;;;;2667501;76;20447;-89
2023/09/12 09:50:39;;;;;;;;;;;120.61;114.10;;;;;;2667026;76;20438;-88
2023/09/12 09:54:10;;;;;;;;;;;120.61;114.10;;;;;;2666170;76;20466;-88
2023/09/12 09:57:38;;;;;;;;;;;120.61;114.10;;;;;;2666200;76;21079;-89
2023/09/12 10:01:11;;;;;;;;;;;120.61;114.10;;;;;;2667189;76;20500;-88
2023/09/12 10:04:45;;;;;;;;;;;120.61;114.10;;;;;;2666339;76;20345;-89
2023/09/12 10:08:21;;;;;;;;;;;120.61;114.10;;;;;;2667104;76;20339;-89
2023/09/12 10:11:49;;;;;;;;;;;120.61;114.10;;;;;;2667385;76;20315;-89
2023/09/12 10:15:22;;;;;;;;;;;120.61;114.10;;;;;;2667562;76;20444;-88
2023/09/12 10:18:56;;;;;;;;;;;120.61;114.10;;;;;;2668532;76;20955;-88
2023/09/12 10:22:38;;;;;;;;;;;120.61;114.10;;;;;;2666401;76;20444;-90
2023/09/12 10:26:05;;;;;;;;;;;120.61;114.10;;;;;;2667374;76;20441;-87
2023/09/12 10:29:39;;;;;;;;;;;120.61;114.10;;;;;;2667664;76;20628;-89
2023/09/12 10:33:07;;;;;;;;;;;120.61;114.10;;;;;;2666394;76;20441;-89
2023/09/12 10:36:41;;;;;;;;;;;120.61;114.10;;;;;;2666984;76;20540;-89
2023/09/12 10:40:09;;;;;;;;;;;120.61;114.10;;;;;;2665329;76;20419;-90
2023/09/12 10:43:37;;;;;;;;;;;120.61;114.10;;;;;;2666947;76;20450;-89
2023/09/12 10:47:05;;;;;;;;;;;120.61;114.10;;;;;;2667293;76;20448;-90
2023/09/12 10:50:38;;;;;;;;;;;120.61;114.10;;;;;;2666814;76;20876;-90
2023/09/12 10:54:12;;;;;;;;;;;120.61;114.10;;;;;;2667641;76;20459;-88
2023/09/12 10:57:40;;;;;;;;;;;120.61;114.10;;;;;;2668042;76;20474;-90
2023/09/12 11:01:13;;;;;;;;;;;120.61;114.10;;;;;;2667408;76;20714;-93
2023/09/12 11:04:43;;;;;;;;;;;120.61;114.10;;;;;;2666897;76;20450;-92
2023/09/12 11:08:12;;;;;;;;;;;120.61;114.10;;;;;;2666432;76;20453;-87
2023/09/12 11:11:41;;;;;;;;;;;120.61;114.10;;;;;;2666432;76;20476;-88
2023/09/12 11:15:19;;;;;;;;;;;120.61;114.10;;;;;;2665193;76;20469;-94
2023/09/12 11:18:54;;;;;;;;;;;120.61;114.10;;;;;;2665599;76;21000;-91
2023/09/12 11:22:30;;;;;;;;;;;120.61;114.10;;;;;;2666514;76;20461;-91
2023/09/12 11:34:31;;;;;;;;;;;;;;;;;;;;;
2023/09/12 11:38:16;;;;;;;;;;;120.61;114.10;;;;;;2665149;76;20685;-92
2023/09/12 11:41:59;;;;;;;;;;;120.61;114.10;;;;;;2665791;76;20445;-92
2023/09/12 11:45:53;;;;;;;;;;;120.61;114.10;;;;;;2667656;76;20508;-90
2023/09/12 11:49:20;;;;;;;;;;;;;;;;;;;;;
2023/09/12 11:52:59;;;;;;;;;;;120.61;114.10;;;;;;2667542;76;20429;-92
2023/09/12 11:56:59;;;;;;;;;;;;;;;;;;;;;
2023/09/12 12:00:46;;;;;;;;;;;;;;;;;;;;;
2023/09/12 12:04:27;;;;;;;;;;;;;;;;;;;;;
2023/09/12 12:37:25;;;;;;;;;;;;;;;;;;;;;
2023/09/12 12:40:42;;;;;;;;;;;;;;;;;;;;;
2023/09/12 12:44:19;;;;;;;;;;;;;;;;;;;;;
2023/09/12 12:48:06;;;;;;;;;;;;;;;;;;;;;
2023/09/12 12:56:13;;;;;;;;;;;;;;;;;;;;;
2023/09/12 12:59:47;;;;;;;;;;;120.61;114.10;;;;;;2667630;76;20473;-91
2023/09/12 13:03:20;;;;;;;;;;;120.61;114.10;;;;;;2669347;75;20453;-93
2023/09/12 13:07:01;;;;;;;;;;;120.61;114.10;;;;;;2670438;76;20785;-92
2023/09/12 13:10:45;;;;;;;;;;;;;;;;;;;;;
2023/09/12 13:14:15;;;;;;;;;;;120.61;114.10;;;;;;2669608;76;20343;-93
2023/09/12 13:18:30;;;;;;;;;;;;;;;;;;;;;
2023/09/12 13:25:34;;;;;;;;;;;120.61;114.10;;;;;;2667686;76;20451;-93
2023/09/12 13:33:38;;;;;;;;;;;120.61;114.10;;;;;;2664974;76;20484;-92
2023/09/12 13:37:55;;;;;;;;;;;120.61;114.10;;;;;;2667376;76;20451;-92
2023/09/12 13:42:03;;;;;;;;;;;;;;;;;;;;;
2023/09/12 13:45:31;;;;;;;;;;;120.61;114.10;;;;;;2667913;76;20603;-92
2023/09/12 13:49:58;;;;;;;;;;;;;;;;;;;;;
2023/09/12 14:00:45;;;;;;;;;;;;;;;;;;;;;
2023/09/12 14:08:28;;;;;;;;;;;120.61;114.10;;;;;;2667157;76;20426;-90
2023/09/12 14:12:12;;;;;;;;;;;;;;;;;;;;;
2023/09/12 14:15:38;;;;;;;;;;;120.61;114.10;;;;;;2668538;76;20451;-91
2023/09/12 14:22:57;;;;;;;;;;;120.61;114.10;;;;;;2669205;76;20422;-89
2023/09/12 14:26:33;;;;;;;;;;;120.61;114.10;;;;;;2669315;76;20355;-90
2023/09/12 14:30:05;;;;;;;;;;;120.61;114.10;;;;;;2667596;76;20576;-90
2023/09/12 14:33:59;;;;;;;;;;;;;;;;;;;;;
2023/09/12 14:37:30;;;;;;;;;;;120.61;114.10;;;;;;2668819;76;20450;-91
2023/09/12 15:01:01;;;;;;;;;;;120.61;114.10;;;;;;2668486;76;20482;-92
2023/09/12 15:04:36;;;;;;;;;;;120.61;114.10;;;;;;2668493;76;20483;-92
2023/09/12 15:16:58;;;;;;;;;;;120.61;114.10;;;;;;2666164;76;20461;-90
2023/09/12 15:20:39;;;;;;;;;;;120.61;114.10;;;;;;2667397;76;20464;-89
2023/09/12 15:24:12;;;;;;;;;;;120.61;114.10;;;;;;2667930;76;20452;-90
2023/09/12 15:27:51;;;;;;;;;;;;;;;;;;;;;
2023/09/12 15:31:14;;;;;;;;;;;120.61;114.10;;;;;;2668372;76;20433;-91
2023/09/12 15:38:30;;;;;;;;;;;120.61;114.10;;;;;;2666084;76;20442;-92
2023/09/12 15:47:09;;;;;;;;;;;;;;;;;;;;;
2023/09/12 15:54:15;;;;;;;;;;;120.61;114.10;;;;;;2668882;76;20451;-91
2023/09/12 15:57:49;;;;;;;;;;;120.61;114.10;;;;;;2668504;76;20445;-90
2023/09/12 16:01:34;;;;;;;;;;;120.61;114.10;;;;;;2668545;76;20440;-90
2023/09/12 16:05:01;;;;;;;;;;;120.61;114.10;;;;;;2667156;76;20465;-91
2023/09/12 16:08:48;;;;;;;;;;;120.61;114.10;;;;;;2667667;76;20812;-92
2023/09/12 16:12:20;;;;;;;;;;;120.61;114.10;;;;;;2668183;76;20454;-91
2023/09/12 16:24:25;;;;;;;;;;;120.61;114.10;;;;;;2667341;76;20468;-93
2023/09/12 16:28:33;;;;;;;;;;;;;;;;;;;;;
2023/09/12 16:32:08;;;;;;;;;;;120.61;114.10;;;;;;2668285;76;20472;-92
2023/09/12 16:36:27;;;;;;;;;;;120.61;114.10;;;;;;2668270;76;20489;-92
2023/09/12 16:46:30;;;;;;;;;;;120.61;114.10;;;;;;2670161;76;20379;-92
2023/09/12 16:50:15;;;;;;;;;;;120.61;114.10;;;;;;2670063;76;20473;-91
2023/09/12 16:54:41;;;;;;;;;;;120.61;114.10;;;;;;2669114;76;21535;-89
2023/09/12 17:06:16;;;;;;;;;;;120.61;114.10;;;;;;2669128;76;20446;-91
2023/09/12 17:09:45;;;;;;;;;;;120.61;114.10;;;;;;2670247;76;20446;-91
2023/09/12 17:13:13;;;;;;;;;;;120.61;114.10;;;;;;2669467;76;21627;-91
2023/09/12 17:16:53;;;;;;;;;;;120.61;114.10;;;;;;2669167;76;20824;-91
2023/09/12 17:20:26;;;;;;;;;;;;;;;;;;;;;
2023/09/12 17:31:40;;;;;;;;;;;;;;;;;;;;;
2023/09/12 17:48:13;;;;;;;;;;;120.61;114.10;;;;;;2668962;76;20887;-93
2023/09/12 17:51:56;;;;;;;;;;;120.61;114.10;;;;;;2669639;76;20987;-90
2023/09/12 17:55:36;;;;;;;;;;;;;;;;;;;;;
2023/09/12 17:59:09;;;;;;;;;;;120.61;114.10;;;;;;2669963;76;20467;-92
2023/09/12 18:02:44;;;;;;;;;;;120.61;114.10;;;;;;2669695;76;20860;-91
2023/09/12 18:06:20;;;;;;;;;;;120.61;114.10;;;;;;2669144;76;20441;-91
2023/09/12 18:14:04;;;;;;;;;;;120.61;114.10;;;;;;2668536;76;20864;-92
2023/09/12 18:26:04;;;;;;;;;;;120.61;114.10;;;;;;2667748;76;20418;-93
2023/09/12 18:37:13;;;;;;;;;;;;;;;;;;;;;
2023/09/12 18:40:55;;;;;;;;;;;120.61;114.10;;;;;;2669372;76;20416;-94
2023/09/12 18:45:04;;;;;;;;;;;;;;;;;;;;;
2023/09/12 18:52:57;;;;;;;;;;;120.61;114.10;;;;;;2668641;76;20453;-92
2023/09/12 18:56:31;;;;;;;;;;;120.61;114.10;;;;;;2668980;76;21028;-93
2023/09/12 19:00:07;;;;;;;;;;;120.61;114.10;;;;;;2671829;76;20441;-93
2023/09/12 19:03:42;;;;;;;;;;;120.61;114.10;;;;;;2669317;76;20514;-91
2023/09/12 19:07:10;;;;;;;;;;;120.61;114.10;;;;;;2670237;76;20485;-91
2023/09/12 19:10:39;;;;;;;;;;;120.61;114.10;;;;;;2671705;76;20461;-91
2023/09/12 19:17:44;;;;;;;;;;;120.61;114.10;;;;;;2671457;76;20444;-93
2023/09/12 19:21:13;;;;;;;;;;;120.61;114.10;;;;;;2670796;76;20452;-92
2023/09/12 19:24:44;;;;;;;;;;;120.61;114.10;;;;;;2671241;76;20456;-91
2023/09/12 19:28:12;;;;;;;;;;;120.61;114.10;;;;;;2670982;76;20455;-91
2023/09/12 19:31:40;;;;;;;;;;;120.61;114.10;;;;;;2670003;76;20490;-91
2023/09/12 19:35:09;;;;;;;;;;;120.61;114.10;;;;;;2669577;76;20936;-92
2023/09/12 19:38:38;;;;;;;;;;;120.61;114.10;;;;;;2669955;76;20494;-91
2023/09/12 19:42:09;;;;;;;;;;;120.61;114.10;;;;;;2669507;76;20458;-91
2023/09/12 19:45:38;;;;;;;;;;;120.61;114.10;;;;;;2669332;76;20477;-91
2023/09/12 19:49:06;;;;;;;;;;;120.61;114.10;;;;;;2669626;76;20447;-91
2023/09/12 19:52:34;;;;;;;;;;;120.61;114.10;;;;;;2669102;76;20475;-91
2023/09/12 19:56:03;;;;;;;;;;;120.61;114.10;;;;;;2669665;76;20436;-91
2023/09/12 19:59:36;;;;;;;;;;;120.61;114.10;;;;;;2670158;76;20473;-91
2023/09/12 20:03:05;;;;;;;;;;;120.61;114.10;;;;;;2668820;76;20477;-91
2023/09/12 20:06:33;;;;;;;;;;;120.61;114.10;;;;;;2669721;76;20589;-91
2023/09/12 20:10:04;;;;;;;;;;;120.61;114.10;;;;;;2670110;76;20434;-91
2023/09/12 20:13:32;;;;;;;;;;;120.61;114.10;;;;;;2669561;76;20431;-91
2023/09/12 20:17:03;;;;;;;;;;;120.61;114.10;;;;;;2668107;76;20423;-92
2023/09/12 20:20:39;;;;;;;;;;;120.61;114.10;;;;;;2669490;76;20443;-92
2023/09/12 20:24:06;;;;;;;;;;;120.61;114.10;;;;;;2669787;76;20473;-91
2023/09/12 20:27:39;;;;;;;;;;;120.61;114.10;;;;;;2672080;76;20435;-92
2023/09/12 20:31:10;;;;;;;;;;;120.61;114.10;;;;;;2671490;76;20436;-91
2023/09/12 20:34:44;;;;;;;;;;;120.61;114.10;;;;;;2671274;76;20994;-92
2023/09/12 20:38:18;;;;;;;;;;;120.61;114.10;;;;;;2670389;76;20493;-92
2023/09/12 20:41:47;;;;;;;;;;;120.61;114.10;;;;;;2671628;76;20442;-92
2023/09/12 20:45:20;;;;;;;;;;;120.61;114.10;;;;;;2670560;76;20313;-92
2023/09/12 20:48:49;;;;;;;;;;;120.61;114.10;;;;;;2671781;76;20421;-92
2023/09/12 20:52:25;;;;;;;;;;;120.61;114.10;;;;;;2671163;76;20305;-92
2023/09/12 20:55:50;;;;;;;;;;;120.61;114.10;;;;;;2669607;76;20440;-92
2023/09/12 20:59:20;;;;;;;;;;;120.61;114.10;;;;;;2670761;76;20464;-91
2023/09/12 21:02:49;;;;;;;;;;;120.61;114.10;;;;;;2671917;76;20432;-91
2023/09/12 21:06:17;;;;;;;;;;;120.61;114.10;;;;;;2670847;76;20476;-91
2023/09/12 21:09:50;;;;;;;;;;;120.61;114.10;;;;;;2672349;76;21017;-91
2023/09/12 21:13:16;;;;;;;;;;;120.61;114.10;;;;;;2672648;76;20439;-92
2023/09/12 21:16:44;;;;;;;;;;;120.61;114.10;;;;;;2671174;76;20465;-92
2023/09/12 21:20:12;;;;;;;;;;;120.61;114.10;;;;;;2670799;76;20500;-92
2023/09/12 21:23:41;;;;;;;;;;;120.61;114.10;;;;;;2671587;76;20460;-91
2023/09/12 21:27:09;;;;;;;;;;;120.61;114.10;;;;;;2672450;76;20464;-91
2023/09/12 21:30:37;;;;;;;;;;;120.61;114.10;;;;;;2671889;76;20750;-91
2023/09/12 21:34:05;;;;;;;;;;;120.61;114.10;;;;;;2671505;76;20447;-91
2023/09/12 21:37:33;;;;;;;;;;;120.61;114.10;;;;;;2672147;76;20567;-91
2023/09/12 21:41:01;;;;;;;;;;;120.61;114.10;;;;;;2670982;76;20462;-91
2023/09/12 21:44:30;;;;;;;;;;;120.61;114.10;;;;;;2670969;76;20471;-91
2023/09/12 21:47:58;;;;;;;;;;;120.61;114.10;;;;;;2670737;76;20453;-91
2023/09/12 21:51:26;;;;;;;;;;;120.61;114.10;;;;;;2670456;76;20466;-91
2023/09/12 21:54:54;;;;;;;;;;;120.61;114.10;;;;;;2670698;76;20442;-92
2023/09/12 21:58:25;;;;;;;;;;;120.61;114.10;;;;;;2672359;76;20444;-91
2023/09/12 22:01:53;;;;;;;;;;;120.61;114.10;;;;;;2671702;76;20481;-92
2023/09/12 22:05:22;;;;;;;;;;;120.61;114.10;;;;;;2671966;76;20427;-92
2023/09/12 22:08:50;;;;;;;;;;;120.61;114.10;;;;;;2672020;76;20465;-91
2023/09/12 22:12:18;;;;;;;;;;;120.61;114.10;;;;;;2672364;76;20472;-91
2023/09/12 22:15:46;;;;;;;;;;;120.61;114.10;;;;;;2672280;76;20454;-91
2023/09/12 22:19:17;;;;;;;;;;;120.61;114.10;;;;;;2672844;76;20978;-90
2023/09/12 22:22:45;;;;;;;;;;;120.61;114.10;;;;;;2672205;76;20509;-91
2023/09/12 22:26:13;;;;;;;;;;;120.61;114.10;;;;;;2672867;76;20460;-91
2023/09/12 22:29:41;;;;;;;;;;;120.61;114.10;;;;;;2672856;76;20977;-91
2023/09/12 22:33:10;;;;;;;;;;;120.61;114.10;;;;;;2672380;76;20464;-92
2023/09/12 22:36:38;;;;;;;;;;;120.61;114.10;;;;;;2672325;76;20443;-92
2023/09/12 22:40:08;;;;;;;;;;;120.61;114.10;;;;;;2673047;76;20419;-91
2023/09/12 22:43:41;;;;;;;;;;;120.61;114.10;;;;;;2672351;76;20344;-92
2023/09/12 22:47:06;;;;;;;;;;;120.61;114.10;;;;;;2672262;76;20446;-92
2023/09/12 22:50:42;;;;;;;;;;;120.61;114.10;;;;;;2671951;76;20469;-92
2023/09/12 22:54:10;;;;;;;;;;;120.61;114.10;;;;;;2673335;76;20429;-92
2023/09/12 22:57:41;;;;;;;;;;;120.61;114.10;;;;;;2672991;76;20425;-92
2023/09/12 23:01:09;;;;;;;;;;;120.61;114.10;;;;;;2672553;76;20433;-91
2023/09/12 23:04:40;;;;;;;;;;;120.61;114.10;;;;;;2672527;76;20434;-92
2023/09/12 23:08:12;;;;;;;;;;;120.61;114.10;;;;;;2672347;76;20329;-91
2023/09/12 23:11:40;;;;;;;;;;;120.61;114.10;;;;;;2672576;76;20979;-91
2023/09/12 23:15:09;;;;;;;;;;;120.61;114.10;;;;;;2672617;76;20473;-91
2023/09/12 23:18:40;;;;;;;;;;;120.61;114.10;;;;;;2672866;76;20343;-91
2023/09/12 23:22:08;;;;;;;;;;;120.61;114.10;;;;;;2672803;76;20424;-92
2023/09/12 23:25:42;;;;;;;;;;;120.61;114.10;;;;;;2672321;76;20358;-91
2023/09/12 23:29:12;;;;;;;;;;;120.61;114.10;;;;;;2672668;76;20874;-92
2023/09/12 23:32:40;;;;;;;;;;;120.61;114.10;;;;;;2672054;76;20448;-92